Terminal Aerodrome Forecast
Issued by NWS

Home | Current Version | Previous Version | Text Only | Print | Product List | Glossary On
Versions: 1 2 3 4 5 6 7 8 9 10 11 12 13 14 15 16 17 18 19
000
FTUS41 KOKX 140850 AAA
TAFSWF
TAF AMD
KSWF 140850Z 1409/1512 30016G25KT P6SM FEW150
     FM141100 30011G19KT P6SM SKC
     FM142100 31007KT P6SM SKC
     FM150000 00000KT P6SM SKC
      AMD NOT SKED=

USA.gov is the U.S. government's official web portal to all federal, state and local government web resources and services.